Time,TemperatureF,DewpointF,PressureIn,WindDirection,WindDirectionDegrees,WindSpeedMPH,WindSpeedGustMPH,Humidity,HourlyPrecipIn,Conditions,Clouds,dailyrainin,SoftwareType,DateUTC
2013-07-01 00:03:00,72.5,69.4,29.98,West,270,0.0,0.0,90,0.00,,,0.00,pywws,2013-07-01 04:03:00,
2013-07-01 00:06:00,72.5,69.4,29.98,West,270,0.0,0.0,90,0.00,,,0.00,pywws,2013-07-01 04:06:00,
2013-07-01 00:07:00,72.5,69.4,29.98,West,270,0.0,0.0,90,0.00,,,0.00,pywws,2013-07-01 04:07:00,
2013-07-01 00:08:00,72.5,69.4,29.98,West,270,0.0,0.0,90,0.00,,,0.00,pywws,2013-07-01 04:08:00,
2013-07-01 00:13:00,72.5,69.4,29.98,West,270,0.0,0.0,90,0.00,,,0.00,pywws,2013-07-01 04:13:00,
2013-07-01 00:19:00,72.5,69.7,29.98,West,270,0.0,0.0,91,0.00,,,0.00,pywws,2013-07-01 04:19:00,
2013-07-01 00:25:00,72.3,69.5,29.98,West,270,0.0,0.0,91,0.00,,,0.00,pywws,2013-07-01 04:25:00,
2013-07-01 00:30:00,72.3,69.5,29.98,West,270,0.0,0.0,91,0.00,,,0.00,pywws,2013-07-01 04:30:00,
2013-07-01 00:36:00,72.1,69.4,29.98,South,180,0.0,0.0,91,0.00,,,0.00,pywws,2013-07-01 04:36:00,
2013-07-01 00:41:00,72.0,69.2,29.98,West,270,0.0,0.0,91,0.00,,,0.00,pywws,2013-07-01 04:41:00,
2013-07-01 00:47:00,71.8,69.0,29.98,West,270,0.0,0.0,91,0.00,,,0.00,pywws,2013-07-01 04:47:00,
2013-07-01 00:58:00,71.8,69.3,29.98,West,270,0.0,0.0,92,0.00,,,0.00,pywws,2013-07-01 04:58:00,
2013-07-01 01:05:00,71.8,69.3,29.98,West,270,0.0,0.0,92,0.00,,,0.00,pywws,2013-07-01 05:05:00,
2013-07-01 01:11:00,71.8,69.3,29.98,West,270,0.0,0.0,92,0.00,,,0.00,pywws,2013-07-01 05:11:00,
2013-07-01 01:20:00,71.6,69.1,29.98,West,270,0.0,0.0,92,0.00,,,0.00,pywws,2013-07-01 05:20:00,
2013-07-01 01:26:00,71.8,69.3,29.98,West,270,0.0,0.0,92,0.00,,,0.00,pywws,2013-07-01 05:26:00,
2013-07-01 01:32:00,71.8,69.3,29.98,West,270,0.0,0.0,92,0.00,,,0.00,pywws,2013-07-01 05:32:00,
2013-07-01 01:38:00,71.8,69.3,29.98,West,270,0.0,0.0,92,0.00,,,0.00,pywws,2013-07-01 05:38:00,
2013-07-01 01:44:00,71.8,69.3,29.98,West,270,0.0,0.0,92,0.00,,,0.00,pywws,2013-07-01 05:44:00,
2013-07-01 01:49:00,71.8,69.3,29.99,West,270,0.0,0.0,92,0.00,,,0.00,pywws,2013-07-01 05:49:00,
2013-07-01 01:55:00,71.8,69.3,29.99,West,270,0.0,0.0,92,0.00,,,0.00,pywws,2013-07-01 05:55:00,
2013-07-01 02:05:00,71.8,69.3,29.98,West,270,0.0,0.0,92,0.00,,,0.00,pywws,2013-07-01 06:05:00,
2013-07-01 02:11:00,71.8,69.3,29.98,West,270,0.0,0.0,92,0.00,,,0.00,pywws,2013-07-01 06:11:00,
2013-07-01 02:17:00,71.8,69.3,29.98,West,270,0.0,0.0,92,0.00,,,0.00,pywws,2013-07-01 06:17:00,
2013-07-01 02:23:00,71.8,69.3,29.98,West,270,0.0,0.0,92,0.00,,,0.00,pywws,2013-07-01 06:23:00,
2013-07-01 02:29:00,71.8,69.3,29.99,West,270,0.0,0.0,92,0.00,,,0.00,pywws,2013-07-01 06:29:00,
2013-07-01 02:34:00,71.8,69.3,29.99,West,270,0.0,0.0,92,0.00,,,0.00,pywws,2013-07-01 06:34:00,
2013-07-01 02:40:00,71.8,69.3,29.98,West,270,0.0,0.0,92,0.00,,,0.00,pywws,2013-07-01 06:40:00,
2013-07-01 02:45:00,71.8,69.3,29.99,West,270,0.0,0.0,92,0.00,,,0.00,pywws,2013-07-01 06:45:00,
2013-07-01 02:56:00,71.8,69.3,29.99,West,270,0.0,0.0,92,0.00,,,0.00,pywws,2013-07-01 06:56:00,
2013-07-01 03:03:00,71.8,69.3,29.99,West,270,0.0,0.0,92,0.00,,,0.00,pywws,2013-07-01 07:03:00,
2013-07-01 03:09:00,71.8,69.3,29.98,West,270,0.0,0.0,92,0.00,,,0.00,pywws,2013-07-01 07:09:00,
2013-07-01 03:15:00,71.8,69.3,29.98,West,270,0.0,0.0,92,0.00,,,0.00,pywws,2013-07-01 07:15:00,
2013-07-01 03:25:00,71.8,69.3,29.98,West,270,0.0,0.0,92,0.00,,,0.00,pywws,2013-07-01 07:25:00,
2013-07-01 03:31:00,71.8,69.3,29.98,West,270,0.0,0.0,92,0.00,,,0.00,pywws,2013-07-01 07:31:00,
2013-07-01 03:37:00,72.0,69.5,29.98,West,270,0.0,0.0,92,0.00,,,0.00,pywws,2013-07-01 07:37:00,
2013-07-01 03:43:00,71.8,69.3,29.99,West,270,0.0,0.0,92,0.00,,,0.00,pywws,2013-07-01 07:43:00,
2013-07-01 03:49:00,72.0,69.5,29.98,West,270,0.0,0.0,92,0.00,,,0.00,pywws,2013-07-01 07:49:00,
2013-07-01 03:55:00,71.8,69.3,29.99,West,270,0.0,0.0,92,0.00,,,0.00,pywws,2013-07-01 07:55:00,
2013-07-01 04:01:00,71.8,69.3,29.98,West,270,0.0,0.0,92,0.00,,,0.00,pywws,2013-07-01 08:01:00,
2013-07-01 04:08:00,71.8,69.3,29.98,West,270,0.0,0.0,92,0.00,,,0.00,pywws,2013-07-01 08:08:00,
2013-07-01 04:13:00,71.8,69.3,29.98,West,270,0.0,0.0,92,0.00,,,0.00,pywws,2013-07-01 08:13:00,
2013-07-01 04:20:00,71.8,69.3,29.99,West,270,0.0,0.0,92,0.00,,,0.00,pywws,2013-07-01 08:20:00,
2013-07-01 04:25:00,71.8,69.3,29.98,West,270,0.0,0.0,92,0.00,,,0.00,pywws,2013-07-01 08:25:00,
2013-07-01 04:32:00,71.8,69.6,29.99,West,270,0.0,0.0,93,0.00,,,0.00,pywws,2013-07-01 08:32:00,
2013-07-01 04:37:00,71.8,69.6,29.99,West,270,0.0,0.0,93,0.00,,,0.00,pywws,2013-07-01 08:37:00,
2013-07-01 04:43:00,71.8,69.6,29.99,West,270,0.0,0.0,93,0.00,,,0.00,pywws,2013-07-01 08:43:00,
2013-07-01 04:49:00,71.6,69.5,30.00,West,270,0.0,0.0,93,0.00,,,0.00,pywws,2013-07-01 08:49:00,
2013-07-01 04:55:00,71.6,69.5,29.99,West,270,0.0,0.0,93,0.00,,,0.00,pywws,2013-07-01 08:55:00,
2013-07-01 05:01:00,71.6,69.5,30.00,West,270,0.0,0.0,93,0.00,,,0.00,pywws,2013-07-01 09:01:00,
2013-07-01 05:07:00,71.6,69.8,30.00,West,270,0.0,0.0,94,0.00,,,0.00,pywws,2013-07-01 09:07:00,
2013-07-01 05:13:00,71.6,69.8,30.01,West,270,0.0,0.0,94,0.00,,,0.00,pywws,2013-07-01 09:13:00,
2013-07-01 05:20:00,71.8,70.0,30.01,West,270,0.0,0.0,94,0.00,,,0.00,pywws,2013-07-01 09:20:00,
2013-07-01 05:25:00,71.8,70.0,30.01,West,270,0.0,0.0,94,0.00,,,0.00,pywws,2013-07-01 09:25:00,
2013-07-01 05:31:00,71.8,70.0,30.01,West,270,0.0,0.0,94,0.00,,,0.00,pywws,2013-07-01 09:31:00,
2013-07-01 05:37:00,71.8,70.0,30.01,West,270,0.0,0.0,94,0.00,,,0.00,pywws,2013-07-01 09:37:00,
2013-07-01 05:43:00,71.8,70.0,30.01,West,270,0.0,0.0,94,0.00,,,0.00,pywws,2013-07-01 09:43:00,
2013-07-01 05:49:00,72.0,70.1,30.01,West,270,0.0,0.0,94,0.00,,,0.00,pywws,2013-07-01 09:49:00,
2013-07-01 05:55:00,72.1,70.3,30.01,West,270,0.0,0.0,94,0.00,,,0.00,pywws,2013-07-01 09:55:00,
2013-07-01 06:01:00,72.1,70.3,30.01,North,0,0.0,0.0,94,0.00,,,0.00,pywws,2013-07-01 10:01:00,
2013-07-01 06:08:00,72.5,70.7,30.01,North,0,0.0,0.0,94,0.00,,,0.00,pywws,2013-07-01 10:08:00,
2013-07-01 06:13:00,72.9,71.0,30.01,North,0,0.0,0.0,94,0.00,,,0.00,pywws,2013-07-01 10:13:00,
2013-07-01 06:19:00,72.9,71.0,30.01,West,270,0.0,0.0,94,0.00,,,0.00,pywws,2013-07-01 10:19:00,
2013-07-01 06:25:00,73.6,72.4,30.01,West,270,0.0,0.0,96,0.00,,,0.00,pywws,2013-07-01 10:25:00,
2013-07-01 06:30:00,73.2,71.4,30.02,West,270,0.0,0.0,94,0.00,,,0.00,pywws,2013-07-01 10:30:00,
2013-07-01 06:36:00,73.0,71.2,30.01,West,270,0.0,0.0,94,0.00,,,0.00,pywws,2013-07-01 10:36:00,
2013-07-01 06:41:00,73.4,71.9,30.01,West,270,0.0,0.0,95,0.00,,,0.00,pywws,2013-07-01 10:41:00,
2013-07-01 06:48:00,73.6,72.1,30.02,West,270,0.0,0.0,95,0.00,,,0.00,pywws,2013-07-01 10:48:00,
2013-07-01 06:53:00,73.6,72.1,30.02,West,270,0.0,0.0,95,0.00,,,0.00,pywws,2013-07-01 10:53:00,
2013-07-01 06:59:00,73.6,71.7,30.03,West,270,0.0,0.0,94,0.00,,,0.00,pywws,2013-07-01 10:59:00,
2013-07-01 07:05:00,73.4,71.6,30.02,South,180,0.0,0.0,94,0.00,,,0.00,pywws,2013-07-01 11:05:00,
2013-07-01 07:10:00,73.2,70.8,30.03,West,270,0.0,0.0,92,0.00,,,0.00,pywws,2013-07-01 11:10:00,
2013-07-01 07:16:00,73.2,70.8,30.03,West,270,0.0,0.0,92,0.00,,,0.00,pywws,2013-07-01 11:16:00,
2013-07-01 07:21:00,73.0,70.6,30.03,East,90,0.0,0.0,92,0.00,,,0.00,pywws,2013-07-01 11:21:00,
2013-07-01 07:27:00,73.2,70.8,30.02,West,270,0.0,0.0,92,0.00,,,0.00,pywws,2013-07-01 11:27:00,
2013-07-01 07:33:00,73.4,71.6,30.02,North,0,0.0,0.0,94,0.00,,,0.00,pywws,2013-07-01 11:33:00,
2013-07-01 07:38:00,73.8,71.9,30.03,West,270,0.0,0.0,94,0.00,,,0.00,pywws,2013-07-01 11:38:00,
2013-07-01 07:44:00,74.3,72.5,30.02,West,270,0.0,0.0,94,0.00,,,0.00,pywws,2013-07-01 11:44:00,
2013-07-01 07:49:00,75.0,72.9,30.02,West,270,0.0,0.0,93,0.00,,,0.00,pywws,2013-07-01 11:49:00,
2013-07-01 07:55:00,75.0,72.5,30.02,West,270,0.0,0.0,92,0.00,,,0.00,pywws,2013-07-01 11:55:00,
2013-07-01 08:01:00,75.7,72.6,30.03,West,270,0.0,0.0,90,0.00,,,0.00,pywws,2013-07-01 12:01:00,
2013-07-01 08:06:00,75.4,71.9,30.03,South,180,0.0,0.0,89,0.00,,,0.00,pywws,2013-07-01 12:06:00,
2013-07-01 08:12:00,75.7,71.9,30.03,South,180,0.0,0.0,88,0.00,,,0.00,pywws,2013-07-01 12:12:00,
2013-07-01 08:17:00,76.1,72.3,30.03,East,90,0.0,0.0,88,0.00,,,0.00,pywws,2013-07-01 12:17:00,
2013-07-01 08:23:00,75.7,71.6,30.03,West,270,0.0,0.0,87,0.00,,,0.00,pywws,2013-07-01 12:23:00,
2013-07-01 08:29:00,76.1,71.9,30.04,West,270,0.0,0.0,87,0.00,,,0.00,pywws,2013-07-01 12:29:00,
2013-07-01 08:34:00,75.6,71.4,30.03,SW,225,0.0,0.0,87,0.00,,,0.00,pywws,2013-07-01 12:34:00,
2013-07-01 08:40:00,75.0,71.2,30.04,West,270,0.0,0.0,88,0.00,,,0.00,pywws,2013-07-01 12:40:00,
2013-07-01 08:45:00,75.4,71.2,30.04,West,270,0.0,0.0,87,0.00,,,0.00,pywws,2013-07-01 12:45:00,
2013-07-01 08:51:00,75.4,71.6,30.04,East,90,0.0,0.0,88,0.00,,,0.00,pywws,2013-07-01 12:51:00,
2013-07-01 08:57:00,75.0,71.2,30.04,East,90,0.0,0.0,88,0.00,,,0.00,pywws,2013-07-01 12:57:00,
2013-07-01 09:02:00,75.4,71.2,30.03,West,270,0.0,0.0,87,0.00,,,0.00,pywws,2013-07-01 13:02:00,
2013-07-01 09:09:00,75.0,71.2,30.04,South,180,0.0,0.0,88,0.00,,,0.00,pywws,2013-07-01 13:09:00,
2013-07-01 09:14:00,75.6,71.4,30.04,West,270,0.0,0.0,87,0.00,,,0.00,pywws,2013-07-01 13:14:00,
2013-07-01 09:20:00,75.9,71.8,30.04,East,90,0.0,0.0,87,0.00,,,0.00,pywws,2013-07-01 13:20:00,
2013-07-01 09:25:00,75.6,71.1,30.04,East,90,0.0,0.0,86,0.00,,,0.00,pywws,2013-07-01 13:25:00,
2013-07-01 09:31:00,76.8,72.6,30.04,West,270,0.0,0.0,87,0.00,,,0.00,pywws,2013-07-01 13:31:00,
2013-07-01 09:37:00,76.5,71.9,30.04,West,270,0.0,0.0,86,0.00,,,0.00,pywws,2013-07-01 13:37:00,
2013-07-01 09:42:00,77.2,72.3,30.04,West,270,0.0,0.0,85,0.00,,,0.00,pywws,2013-07-01 13:42:00,
2013-07-01 09:44:00,77.2,72.3,30.04,West,270,0.0,0.0,85,0.00,,,0.00,pywws,2013-07-01 13:44:00,
2013-07-01 09:49:00,77.5,72.3,30.04,West,270,0.0,0.0,84,0.00,,,0.00,pywws,2013-07-01 13:49:00,
2013-07-01 09:55:00,77.4,72.1,30.04,West,270,0.0,0.0,84,0.00,,,0.00,pywws,2013-07-01 13:55:00,
2013-07-01 10:01:00,76.6,71.8,30.04,West,270,0.0,0.0,85,0.00,,,0.00,pywws,2013-07-01 14:01:00,
2013-07-01 10:06:00,76.3,71.8,30.04,West,270,0.0,0.0,86,0.00,,,0.00,pywws,2013-07-01 14:06:00,
2013-07-01 10:12:00,75.6,71.1,30.04,South,180,0.0,0.0,86,0.00,,,0.00,pywws,2013-07-01 14:12:00,
2013-07-01 10:17:00,75.6,71.4,30.04,West,270,0.0,0.0,87,0.00,,,0.00,pywws,2013-07-01 14:17:00,
2013-07-01 10:23:00,76.1,71.9,30.05,West,270,0.0,0.0,87,0.00,,,0.00,pywws,2013-07-01 14:23:00,
2013-07-01 10:29:00,76.3,72.1,30.05,West,270,0.0,0.0,87,0.00,,,0.00,pywws,2013-07-01 14:29:00,
2013-07-01 10:35:00,76.6,72.5,30.04,West,270,0.0,0.0,87,0.00,,,0.00,pywws,2013-07-01 14:35:00,
2013-07-01 10:41:00,76.6,72.5,30.05,West,270,0.0,0.0,87,0.00,,,0.00,pywws,2013-07-01 14:41:00,
2013-07-01 10:46:00,76.5,72.3,30.05,East,90,0.0,0.0,87,0.00,,,0.00,pywws,2013-07-01 14:46:00,
2013-07-01 10:52:00,78.6,74.1,30.05,West,270,0.0,0.0,86,0.00,,,0.00,pywws,2013-07-01 14:52:00,
2013-07-01 10:57:00,77.5,72.3,30.05,SW,225,0.0,0.0,84,0.00,,,0.00,pywws,2013-07-01 14:57:00,
2013-07-01 11:02:00,77.9,73.0,30.05,North,0,0.0,0.0,85,0.00,,,0.00,pywws,2013-07-01 15:02:00,
2013-07-01 11:08:00,77.7,72.1,30.05,South,180,0.0,0.0,83,0.00,,,0.00,pywws,2013-07-01 15:08:00,
2013-07-01 11:13:00,78.6,73.4,30.05,West,270,0.0,0.0,84,0.00,,,0.00,pywws,2013-07-01 15:13:00,
2013-07-01 11:19:00,79.2,73.2,30.05,West,270,0.0,0.0,82,0.00,,,0.00,pywws,2013-07-01 15:19:00,
2013-07-01 11:25:00,81.3,74.9,30.05,West,270,0.0,0.0,81,0.00,,,0.00,pywws,2013-07-01 15:25:00,
2013-07-01 11:30:00,79.0,71.9,30.05,South,180,0.0,0.0,79,0.00,,,0.00,pywws,2013-07-01 15:30:00,
2013-07-01 11:36:00,81.1,73.6,30.04,West,270,0.0,0.0,78,0.00,,,0.00,pywws,2013-07-01 15:36:00,
2013-07-01 11:41:00,81.3,72.6,30.04,West,270,0.0,0.0,75,0.00,,,0.00,pywws,2013-07-01 15:41:00,
2013-07-01 11:47:00,80.4,72.5,30.05,South,180,0.0,0.0,77,0.00,,,0.00,pywws,2013-07-01 15:47:00,
2013-07-01 11:53:00,81.9,73.9,30.05,West,270,0.0,0.0,77,0.00,,,0.00,pywws,2013-07-01 15:53:00,
2013-07-01 11:58:00,83.7,75.3,30.04,SE,135,0.0,0.0,76,0.00,,,0.00,pywws,2013-07-01 15:58:00,
2013-07-01 12:04:00,84.2,75.0,30.05,East,90,0.0,0.0,74,0.00,,,0.00,pywws,2013-07-01 16:04:00,
2013-07-01 12:09:00,81.7,72.2,30.04,South,180,0.0,0.0,73,0.00,,,0.00,pywws,2013-07-01 16:09:00,
2013-07-01 12:15:00,82.2,72.7,30.04,West,270,0.0,0.0,73,0.00,,,0.00,pywws,2013-07-01 16:15:00,
2013-07-01 12:21:00,86.7,75.3,30.05,West,270,0.0,0.0,69,0.00,,,0.00,pywws,2013-07-01 16:21:00,
2013-07-01 12:26:00,83.3,72.5,30.04,West,270,0.0,0.7,70,0.00,,,0.00,pywws,2013-07-01 16:26:00,
2013-07-01 12:32:00,82.9,73.4,30.04,SE,135,0.0,0.7,73,0.00,,,0.00,pywws,2013-07-01 16:32:00,
2013-07-01 12:37:00,85.6,74.7,30.04,West,270,0.0,0.0,70,0.00,,,0.00,pywws,2013-07-01 16:37:00,
2013-07-01 12:43:00,84.2,72.9,30.04,West,270,0.0,0.0,69,0.00,,,0.00,pywws,2013-07-01 16:43:00,
2013-07-01 12:49:00,83.5,72.2,30.03,West,270,0.0,0.0,69,0.00,,,0.00,pywws,2013-07-01 16:49:00,
2013-07-01 12:54:00,82.4,72.9,30.03,South,180,0.0,0.0,73,0.00,,,0.00,pywws,2013-07-01 16:54:00,
2013-07-01 13:00:00,81.7,73.0,30.03,West,270,0.0,0.0,75,0.00,,,0.00,pywws,2013-07-01 17:00:00,
2013-07-01 13:05:00,83.3,74.5,30.03,West,270,0.0,0.0,75,0.00,,,0.00,pywws,2013-07-01 17:05:00,
2013-07-01 13:11:00,83.5,73.5,30.03,SW,225,0.0,0.7,72,0.00,,,0.00,pywws,2013-07-01 17:11:00,
2013-07-01 13:17:00,83.8,74.6,30.03,SE,135,0.0,0.7,74,0.00,,,0.00,pywws,2013-07-01 17:17:00,
2013-07-01 13:22:00,83.3,73.7,30.03,West,270,0.0,0.0,73,0.00,,,0.00,pywws,2013-07-01 17:22:00,
2013-07-01 13:28:00,82.0,72.5,30.03,SW,225,0.0,0.7,73,0.00,,,0.00,pywws,2013-07-01 17:28:00,
2013-07-01 13:33:00,80.4,71.7,30.03,West,270,0.0,0.0,75,0.00,,,0.00,pywws,2013-07-01 17:33:00,
2013-07-01 13:39:00,79.3,71.5,30.03,South,180,0.0,0.0,77,0.00,,,0.00,pywws,2013-07-01 17:39:00,
2013-07-01 13:45:00,80.1,72.9,30.03,SW,225,0.0,0.0,79,0.00,,,0.00,pywws,2013-07-01 17:45:00,
2013-07-01 13:50:00,80.1,73.3,30.03,North,0,0.0,0.0,80,0.01,,,0.01,pywws,2013-07-01 17:50:00,
2013-07-01 13:56:00,80.8,74.4,30.03,East,90,0.0,1.6,81,0.01,,,0.01,pywws,2013-07-01 17:56:00,
2013-07-01 14:01:00,81.3,74.2,30.03,West,270,0.0,0.0,79,0.01,,,0.01,pywws,2013-07-01 18:01:00,
2013-07-01 14:07:00,81.7,73.7,30.03,West,270,0.0,0.0,77,0.01,,,0.01,pywws,2013-07-01 18:07:00,
2013-07-01 14:13:00,81.9,74.3,30.03,South,180,0.0,0.0,78,0.01,,,0.01,pywws,2013-07-01 18:13:00,
2013-07-01 14:18:00,81.7,74.1,30.03,North,0,0.0,0.0,78,0.01,,,0.01,pywws,2013-07-01 18:18:00,
2013-07-01 14:24:00,81.7,73.0,30.03,North,0,0.0,0.0,75,0.01,,,0.01,pywws,2013-07-01 18:24:00,
2013-07-01 14:29:00,80.8,72.5,30.03,South,180,0.0,0.0,76,0.01,,,0.01,pywws,2013-07-01 18:29:00,
2013-07-01 14:35:00,80.6,72.3,30.03,SE,135,0.0,0.0,76,0.01,,,0.01,pywws,2013-07-01 18:35:00,
2013-07-01 14:41:00,80.8,72.5,30.03,West,270,0.0,1.6,76,0.01,,,0.01,pywws,2013-07-01 18:41:00,
2013-07-01 14:46:00,81.3,72.6,30.03,North,0,0.0,0.7,75,0.00,,,0.01,pywws,2013-07-01 18:46:00,
2013-07-01 14:52:00,80.8,72.1,30.03,West,270,0.0,0.7,75,0.00,,,0.01,pywws,2013-07-01 18:52:00,
2013-07-01 14:59:00,80.8,72.5,30.03,West,270,0.0,0.0,76,0.00,,,0.01,pywws,2013-07-01 18:59:00,
2013-07-01 15:05:00,80.4,72.5,30.03,East,90,0.0,0.0,77,0.00,,,0.01,pywws,2013-07-01 19:05:00,
2013-07-01 15:10:00,79.9,72.4,30.03,South,180,0.0,0.0,78,0.00,,,0.01,pywws,2013-07-01 19:10:00,
2013-07-01 15:16:00,81.5,74.0,30.03,West,270,0.0,0.0,78,0.00,,,0.01,pywws,2013-07-01 19:16:00,
2013-07-01 15:21:00,81.5,73.6,30.04,West,270,0.0,0.0,77,0.00,,,0.01,pywws,2013-07-01 19:21:00,
2013-07-01 15:27:00,81.0,72.7,30.04,North,0,0.0,0.0,76,0.00,,,0.01,pywws,2013-07-01 19:27:00,
2013-07-01 15:33:00,81.9,73.9,30.03,West,270,0.0,0.0,77,0.00,,,0.01,pywws,2013-07-01 19:33:00,
2013-07-01 15:38:00,82.9,74.6,30.03,North,0,1.6,3.1,76,0.00,,,0.01,pywws,2013-07-01 19:38:00,
2013-07-01 15:44:00,81.5,72.8,30.04,NW,315,0.0,0.0,75,0.00,,,0.01,pywws,2013-07-01 19:44:00,
2013-07-01 15:49:00,80.2,72.0,30.04,West,270,0.0,0.0,76,0.00,,,0.01,pywws,2013-07-01 19:49:00,
2013-07-01 15:56:00,80.1,72.6,30.04,South,180,0.0,0.0,78,0.00,,,0.01,pywws,2013-07-01 19:56:00,
2013-07-01 16:01:00,79.9,72.4,30.05,West,270,0.0,0.0,78,0.00,,,0.01,pywws,2013-07-01 20:01:00,
2013-07-01 16:07:00,80.4,72.9,30.04,West,270,0.0,0.0,78,0.00,,,0.01,pywws,2013-07-01 20:07:00,
2013-07-01 16:13:00,81.3,74.2,30.04,NE,45,0.0,0.0,79,0.00,,,0.01,pywws,2013-07-01 20:13:00,
2013-07-01 16:18:00,81.3,73.8,30.04,West,270,0.0,0.0,78,0.00,,,0.01,pywws,2013-07-01 20:18:00,
2013-07-01 16:24:00,80.6,73.1,30.04,West,270,0.0,0.0,78,0.00,,,0.01,pywws,2013-07-01 20:24:00,
2013-07-01 16:29:00,80.1,72.9,30.04,West,270,0.0,0.0,79,0.00,,,0.01,pywws,2013-07-01 20:29:00,
2013-07-01 16:35:00,79.9,72.8,30.04,NE,45,0.0,0.0,79,0.00,,,0.01,pywws,2013-07-01 20:35:00,
2013-07-01 16:41:00,79.3,72.6,30.04,North,0,0.0,0.0,80,0.00,,,0.01,pywws,2013-07-01 20:41:00,
2013-07-01 16:47:00,78.6,72.6,30.05,West,270,0.0,0.0,82,0.00,,,0.01,pywws,2013-07-01 20:47:00,
2013-07-01 16:53:00,78.1,72.5,30.05,South,180,0.0,0.0,83,0.00,,,0.01,pywws,2013-07-01 20:53:00,
2013-07-01 16:58:00,78.3,73.0,30.05,South,180,0.0,0.0,84,0.00,,,0.01,pywws,2013-07-01 20:58:00,
2013-07-01 17:04:00,78.4,73.5,30.05,West,270,0.0,0.0,85,0.00,,,0.01,pywws,2013-07-01 21:04:00,
2013-07-01 17:09:00,78.8,73.2,30.05,East,90,0.0,0.0,83,0.00,,,0.01,pywws,2013-07-01 21:09:00,
2013-07-01 17:15:00,79.3,73.7,30.05,West,270,0.0,0.0,83,0.00,,,0.01,pywws,2013-07-01 21:15:00,
2013-07-01 17:21:00,79.7,74.1,30.05,South,180,0.0,0.0,83,0.00,,,0.01,pywws,2013-07-01 21:21:00,
2013-07-01 17:26:00,79.7,74.1,30.05,West,270,0.0,0.7,83,0.00,,,0.01,pywws,2013-07-01 21:26:00,
2013-07-01 17:32:00,79.5,73.5,30.05,West,270,0.0,0.0,82,0.00,,,0.01,pywws,2013-07-01 21:32:00,
2013-07-01 17:37:00,79.3,73.4,30.05,South,180,0.0,0.0,82,0.00,,,0.01,pywws,2013-07-01 21:37:00,
2013-07-01 17:43:00,78.6,73.0,30.05,West,270,0.0,0.0,83,0.00,,,0.01,pywws,2013-07-01 21:43:00,
2013-07-01 17:49:00,78.6,73.4,30.05,West,270,0.0,0.0,84,0.00,,,0.01,pywws,2013-07-01 21:49:00,
2013-07-01 17:54:00,78.6,73.4,30.05,SE,135,0.0,3.1,84,0.00,,,0.01,pywws,2013-07-01 21:54:00,
2013-07-01 18:00:00,78.4,73.2,30.05,West,270,0.0,0.7,84,0.00,,,0.01,pywws,2013-07-01 22:00:00,
2013-07-01 18:05:00,78.4,73.2,30.05,West,270,0.0,0.0,84,0.00,,,0.01,pywws,2013-07-01 22:05:00,
2013-07-01 18:11:00,78.3,73.0,30.05,West,270,0.0,0.0,84,0.00,,,0.01,pywws,2013-07-01 22:11:00,
2013-07-01 18:17:00,78.1,72.8,30.05,SW,225,0.0,0.0,84,0.00,,,0.01,pywws,2013-07-01 22:17:00,
2013-07-01 18:22:00,77.9,72.7,30.05,West,270,0.0,0.0,84,0.00,,,0.01,pywws,2013-07-01 22:22:00,
2013-07-01 18:28:00,78.1,72.8,30.05,West,270,0.0,0.0,84,0.00,,,0.01,pywws,2013-07-01 22:28:00,
2013-07-01 18:33:00,77.9,72.7,30.05,East,90,0.0,0.0,84,0.00,,,0.01,pywws,2013-07-01 22:33:00,
2013-07-01 18:39:00,77.5,72.3,30.05,South,180,0.0,0.0,84,0.00,,,0.01,pywws,2013-07-01 22:39:00,
2013-07-01 18:45:00,77.4,72.5,30.06,West,270,0.0,0.0,85,0.00,,,0.01,pywws,2013-07-01 22:45:00,
2013-07-01 18:51:00,77.0,72.1,30.06,West,270,0.0,0.0,85,0.00,,,0.01,pywws,2013-07-01 22:51:00,
2013-07-01 18:57:00,77.0,72.1,30.06,West,270,0.0,0.0,85,0.00,,,0.01,pywws,2013-07-01 22:57:00,
2013-07-01 19:02:00,77.2,72.3,30.06,East,90,0.0,0.0,85,0.01,,,0.02,pywws,2013-07-01 23:02:00,
2013-07-01 19:08:00,77.2,72.3,30.06,West,270,0.0,0.0,85,0.01,,,0.02,pywws,2013-07-01 23:08:00,
2013-07-01 19:13:00,77.0,71.8,30.07,SW,225,0.0,0.0,84,0.01,,,0.02,pywws,2013-07-01 23:13:00,
2013-07-01 19:19:00,76.8,72.0,30.07,West,270,0.0,0.0,85,0.01,,,0.02,pywws,2013-07-01 23:19:00,
2013-07-01 19:25:00,76.6,71.8,30.08,West,270,0.0,0.0,85,0.01,,,0.02,pywws,2013-07-01 23:25:00,
2013-07-01 19:30:00,76.6,71.8,30.07,West,270,0.0,0.0,85,0.01,,,0.02,pywws,2013-07-01 23:30:00,
2013-07-01 19:37:00,76.5,71.6,30.08,West,270,0.0,0.0,85,0.01,,,0.02,pywws,2013-07-01 23:37:00,
2013-07-01 19:43:00,76.3,71.4,30.07,West,270,0.0,0.0,85,0.01,,,0.02,pywws,2013-07-01 23:43:00,
2013-07-01 19:49:00,76.1,71.6,30.08,West,270,0.0,0.7,86,0.01,,,0.02,pywws,2013-07-01 23:49:00,
2013-07-01 19:54:00,75.9,71.4,30.08,West,270,0.0,0.0,86,0.01,,,0.02,pywws,2013-07-01 23:54:00,
2013-07-01 20:00:00,75.7,71.2,30.08,South,180,0.0,0.0,86,0.00,,,0.02,pywws,2013-07-02 00:00:00,
2013-07-01 20:05:00,75.7,71.2,30.09,SW,225,0.0,0.0,86,0.00,,,0.02,pywws,2013-07-02 00:05:00,
2013-07-01 20:11:00,75.6,71.1,30.09,West,270,0.0,0.0,86,0.00,,,0.02,pywws,2013-07-02 00:11:00,
2013-07-01 20:17:00,75.4,70.9,30.09,North,0,0.0,0.0,86,0.00,,,0.02,pywws,2013-07-02 00:17:00,
2013-07-01 20:23:00,75.2,71.1,30.09,West,270,0.0,0.0,87,0.00,,,0.02,pywws,2013-07-02 00:23:00,
2013-07-01 20:30:00,75.2,71.1,30.09,West,270,0.0,0.0,87,0.00,,,0.02,pywws,2013-07-02 00:30:00,
2013-07-01 20:36:00,75.0,71.2,30.10,South,180,0.0,0.0,88,0.00,,,0.02,pywws,2013-07-02 00:36:00,
2013-07-01 20:41:00,74.8,71.0,30.09,West,270,0.0,0.0,88,0.00,,,0.02,pywws,2013-07-02 00:41:00,
2013-07-01 20:47:00,74.7,70.9,30.09,West,270,0.0,0.0,88,0.00,,,0.02,pywws,2013-07-02 00:47:00,
2013-07-01 20:54:00,74.5,70.7,30.10,South,180,0.0,0.0,88,0.00,,,0.02,pywws,2013-07-02 00:54:00,
2013-07-01 21:00:00,74.3,70.8,30.10,East,90,0.0,0.0,89,0.00,,,0.02,pywws,2013-07-02 01:00:00,
2013-07-01 21:05:00,74.1,70.7,30.10,West,270,0.0,0.0,89,0.00,,,0.02,pywws,2013-07-02 01:05:00,
2013-07-01 21:11:00,73.9,70.5,30.10,West,270,0.0,0.0,89,0.00,,,0.02,pywws,2013-07-02 01:11:00,
2013-07-01 21:17:00,74.1,70.7,30.11,South,180,0.0,0.0,89,0.00,,,0.02,pywws,2013-07-02 01:17:00,
2013-07-01 21:22:00,73.9,70.5,30.11,North,0,0.0,0.0,89,0.00,,,0.02,pywws,2013-07-02 01:22:00,
2013-07-01 21:28:00,73.9,70.5,30.11,West,270,0.0,0.0,89,0.00,,,0.02,pywws,2013-07-02 01:28:00,
2013-07-01 21:33:00,74.1,70.7,30.11,SE,135,0.0,0.0,89,0.00,,,0.02,pywws,2013-07-02 01:33:00,
2013-07-01 21:39:00,74.3,70.8,30.11,West,270,0.0,0.0,89,0.00,,,0.02,pywws,2013-07-02 01:39:00,
2013-07-01 21:46:00,74.1,70.7,30.11,West,270,0.0,0.0,89,0.00,,,0.02,pywws,2013-07-02 01:46:00,
2013-07-01 21:52:00,73.9,70.5,30.11,South,180,0.0,0.0,89,0.00,,,0.02,pywws,2013-07-02 01:52:00,
2013-07-01 21:57:00,73.9,70.5,30.11,East,90,0.0,0.0,89,0.00,,,0.02,pywws,2013-07-02 01:57:00,
2013-07-01 22:03:00,73.9,70.5,30.11,West,270,0.0,0.0,89,0.00,,,0.02,pywws,2013-07-02 02:03:00,
2013-07-01 22:09:00,73.9,70.5,30.12,West,270,0.0,0.0,89,0.00,,,0.02,pywws,2013-07-02 02:09:00,
2013-07-01 22:14:00,73.9,70.5,30.11,West,270,0.0,0.0,89,0.00,,,0.02,pywws,2013-07-02 02:14:00,
2013-07-01 22:20:00,73.9,70.5,30.11,West,270,0.0,0.0,89,0.00,,,0.02,pywws,2013-07-02 02:20:00,
2013-07-01 22:29:00,73.9,70.5,30.12,South,180,0.0,0.0,89,0.00,,,0.02,pywws,2013-07-02 02:29:00,
2013-07-01 22:34:00,73.9,70.2,30.12,West,270,0.0,0.0,88,0.00,,,0.02,pywws,2013-07-02 02:34:00,
2013-07-01 22:40:00,73.9,70.2,30.12,West,270,0.0,0.0,88,0.00,,,0.02,pywws,2013-07-02 02:40:00,
2013-07-01 22:45:00,73.9,70.2,30.12,West,270,0.0,0.0,88,0.00,,,0.02,pywws,2013-07-02 02:45:00,
2013-07-01 22:53:00,73.9,70.2,30.11,East,90,0.0,0.0,88,0.00,,,0.02,pywws,2013-07-02 02:53:00,
2013-07-01 22:59:00,73.8,70.0,30.11,West,270,0.0,0.0,88,0.00,,,0.02,pywws,2013-07-02 02:59:00,
2013-07-01 23:06:00,73.8,70.0,30.11,NE,45,0.0,0.0,88,0.00,,,0.02,pywws,2013-07-02 03:06:00,
2013-07-01 23:12:00,73.8,70.0,30.11,West,270,0.0,0.0,88,0.00,,,0.02,pywws,2013-07-02 03:12:00,
2013-07-01 23:19:00,73.8,70.3,30.11,West,270,0.0,0.0,89,0.00,,,0.02,pywws,2013-07-02 03:19:00,
2013-07-01 23:25:00,73.8,70.3,30.11,West,270,0.0,0.0,89,0.00,,,0.02,pywws,2013-07-02 03:25:00,
2013-07-01 23:31:00,73.8,70.3,30.11,East,90,0.0,0.0,89,0.00,,,0.02,pywws,2013-07-02 03:31:00,
2013-07-01 23:39:00,73.8,70.3,30.12,West,270,0.0,0.0,89,0.00,,,0.02,pywws,2013-07-02 03:39:00,
2013-07-01 23:45:00,73.8,70.3,30.12,West,270,0.0,0.0,89,0.00,,,0.02,pywws,2013-07-02 03:45:00,
2013-07-01 23:51:00,73.4,70.0,30.12,West,270,0.0,0.0,89,0.00,,,0.02,pywws,2013-07-02 03:51:00,
2013-07-01 23:57:00,73.0,69.9,30.12,West,270,0.0,0.0,90,0.00,,,0.02,pywws,2013-07-02 03:57:00,